KAUS/AUS METAR and TAF weather

Enter ICAO airport designator
Station Type Date Time Source
KAUS METAR 2018/07/16 23:53 UTC NOAA

KAUS 162353Z 18009KT 8SM CLR 36/16 A2996 RMK AO2 SLP131 T03560156 10372 20339 56015


Station Type Date Time Source
KAUS Decoded METAR 2018/07/16 23:53 UTC NOAA

AUSTIN-BERGSTROM INTERNATIONAL AIRPORT, TX, United States (KAUS) 30-11N 097-41W 172M
Jul 16, 2018 - 07:53 PM EDT / 2018.07.16 2353 UTC
Wind: from the S (180 degrees) at 10 MPH (9 KT):0
Visibility: 8 mile(s):0
Sky conditions: clear
Temperature: 96.1 F (35.6 C)
Heat index: 96.1 F (35.6 C):1
Dew Point: 60.1 F (15.6 C)
Relative Humidity: 30%
Pressure (altimeter): 29.96 in. Hg (1014 hPa)
Pressure tendency: 0.04 inches (1.5 hPa) lower than three hours ago
ob: KAUS 162353Z 18009KT 8SM CLR 36/16 A2996 RMK AO2 SLP131 T03560156 10372 20339 56015
cycle: 0

Station Type Date Time Source
KAUS TAF 2018/07/16 18:22 UTC NOAA

TAF KAUS 161720Z 1618/1724 19012KT P6SM FEW050
FM170200 18006KT P6SM FEW030


Example: see airport list